createdAt,value
2018-09-18T00:00:52.094Z,8.30
2018-09-18T00:03:20.438Z,9.70
2018-09-18T00:05:48.600Z,8.20
2018-09-18T00:08:16.648Z,11.43
2018-09-18T00:10:44.801Z,11.60
2018-09-18T00:13:13.044Z,15.73
2018-09-18T00:15:41.208Z,6.83
2018-09-18T00:18:09.225Z,8.53
2018-09-18T00:20:37.447Z,8.23
2018-09-18T00:23:05.642Z,8.40
2018-09-18T00:25:34.078Z,12.70
2018-09-18T00:28:02.115Z,8.23
2018-09-18T00:30:30.254Z,9.60
2018-09-18T00:32:58.329Z,9.27
2018-09-18T00:35:26.403Z,8.40
2018-09-18T00:37:55.173Z,7.87
2018-09-18T00:40:23.188Z,7.67
2018-09-18T00:42:51.266Z,9.10
2018-09-18T00:45:19.346Z,7.80
2018-09-18T00:47:47.450Z,8.10
2018-09-18T00:50:15.524Z,15.37
2018-09-18T00:52:43.532Z,8.03
2018-09-18T00:55:11.570Z,9.07
2018-09-18T00:57:39.610Z,7.37
2018-09-18T01:00:07.925Z,8.53
2018-09-18T01:02:35.939Z,9.80
2018-09-18T01:05:04.044Z,8.87
2018-09-18T01:07:32.139Z,9.67
2018-09-18T01:10:00.228Z,8.90
2018-09-18T01:12:28.245Z,8.87
2018-09-18T01:14:56.361Z,11.00
2018-09-18T01:17:24.542Z,8.73
2018-09-18T01:19:52.759Z,9.63
2018-09-18T01:22:20.739Z,8.70
2018-09-18T01:24:48.761Z,10.30
2018-09-18T01:27:16.871Z,8.80
2018-09-18T01:29:44.900Z,7.87
2018-09-18T01:32:12.900Z,9.80
2018-09-18T01:34:40.947Z,9.10
2018-09-18T01:37:08.994Z,11.20
2018-09-18T01:39:36.990Z,7.93
2018-09-18T01:42:05.374Z,9.03
2018-09-18T01:44:33.556Z,10.17
2018-09-18T01:47:01.604Z,11.00
2018-09-18T01:49:29.605Z,10.37
2018-09-18T01:51:57.689Z,12.30
2018-09-18T01:54:25.712Z,8.83
2018-09-18T01:56:53.857Z,8.63
2018-09-18T01:59:22.069Z,10.17
2018-09-18T02:01:50.137Z,9.23
2018-09-18T02:04:18.217Z,9.93
2018-09-18T02:06:46.336Z,9.40
2018-09-18T02:09:14.418Z,9.57
2018-09-18T02:11:42.430Z,13.67
2018-09-18T02:14:10.508Z,11.30
2018-09-18T02:16:38.572Z,9.30
2018-09-18T02:19:06.682Z,10.17
2018-09-18T02:21:35.067Z,9.50
2018-09-18T02:24:03.285Z,8.97
2018-09-18T02:26:31.669Z,12.27
2018-09-18T02:28:59.906Z,9.60
2018-09-18T02:31:27.963Z,10.37
2018-09-18T02:33:56.044Z,10.20
2018-09-18T02:36:24.113Z,10.70
2018-09-18T02:38:52.147Z,10.17
2018-09-18T02:41:20.248Z,10.73
2018-09-18T02:43:48.338Z,10.07
2018-09-18T02:46:16.511Z,9.57
2018-09-18T02:48:44.596Z,10.73
2018-09-18T02:51:12.644Z,10.60
2018-09-18T02:53:40.725Z,9.40
2018-09-18T02:56:08.792Z,10.00
2018-09-18T02:58:37.011Z,8.83
2018-09-18T03:01:05.045Z,10.53
2018-09-18T03:03:33.164Z,8.97
2018-09-18T03:06:01.172Z,9.23
2018-09-18T03:08:29.201Z,11.53
2018-09-18T03:10:57.263Z,9.40
2018-09-18T03:13:25.377Z,9.80
2018-09-18T03:15:53.634Z,10.70
2018-09-18T03:18:21.843Z,10.50
2018-09-18T03:20:50.039Z,10.40
2018-09-18T03:23:18.027Z,11.00
2018-09-18T03:25:46.077Z,13.10
2018-09-18T03:28:14.222Z,10.67
2018-09-18T03:30:42.285Z,11.63
2018-09-18T03:33:10.440Z,10.50
2018-09-18T03:35:38.550Z,9.50
2018-09-18T03:38:06.516Z,10.37
2018-09-18T03:40:34.509Z,10.23
2018-09-18T03:43:02.672Z,10.73
2018-09-18T03:45:30.733Z,9.87
2018-09-18T03:47:58.829Z,10.80
2018-09-18T03:50:26.853Z,9.13
2018-09-18T03:52:54.842Z,9.30
2018-09-18T03:55:22.885Z,10.90
2018-09-18T03:57:50.984Z,11.13
2018-09-18T04:00:19.008Z,9.47
2018-09-18T04:02:47.099Z,12.90
2018-09-18T04:05:15.123Z,10.07
2018-09-18T04:07:43.142Z,10.93
2018-09-18T04:10:11.165Z,9.97
2018-09-18T04:12:39.168Z,11.57
2018-09-18T04:15:07.256Z,10.47
2018-09-18T04:17:35.346Z,13.47
2018-09-18T04:20:03.559Z,11.73
2018-09-18T04:22:31.557Z,11.07
2018-09-18T04:24:59.587Z,12.10
2018-09-18T04:27:27.612Z,12.67
2018-09-18T04:29:55.601Z,10.90
2018-09-18T04:32:23.604Z,17.63
2018-09-18T04:34:51.633Z,9.43
2018-09-18T04:37:20.890Z,11.93
2018-09-18T04:39:48.890Z,17.00
2018-09-18T04:42:16.910Z,14.90
2018-09-18T04:44:44.983Z,11.80
2018-09-18T04:47:13.028Z,13.37
2018-09-18T04:49:41.079Z,16.27
2018-09-18T04:52:09.099Z,15.37
2018-09-18T04:54:37.425Z,15.77
2018-09-18T04:57:05.838Z,9.77
2018-09-18T04:59:33.903Z,9.23
2018-09-18T05:02:02.433Z,9.70
2018-09-18T05:04:30.463Z,12.70
2018-09-18T05:09:36.088Z,11.33
2018-09-18T05:12:04.248Z,11.93
2018-09-18T05:14:32.625Z,9.40
2018-09-18T05:17:01.390Z,12.37
2018-09-18T05:19:29.447Z,15.87
2018-09-18T05:21:57.627Z,11.50
2018-09-18T05:24:26.737Z,12.23
2018-09-18T05:26:55.977Z,14.73
2018-09-18T05:29:25.073Z,18.97
2018-09-18T05:31:53.140Z,12.67
2018-09-18T05:34:22.083Z,12.40
2018-09-18T05:36:50.459Z,12.80
2018-09-18T05:39:18.491Z,14.57
2018-09-18T05:41:47.534Z,15.37
2018-09-18T05:44:15.626Z,13.50
2018-09-18T05:46:44.033Z,13.33
2018-09-18T05:49:12.125Z,11.37
2018-09-18T05:51:41.686Z,19.57
2018-09-18T05:54:09.788Z,14.50
2018-09-18T05:56:37.830Z,18.33
2018-09-18T05:59:05.992Z,19.63
2018-09-18T06:01:34.147Z,30.50
2018-09-18T06:04:02.291Z,70.73
2018-09-18T06:06:30.357Z,84.87
2018-09-18T06:08:58.428Z,76.77
2018-09-18T06:11:26.567Z,49.37
2018-09-18T06:13:55.444Z,53.47
2018-09-18T06:16:23.558Z,49.13
2018-09-18T06:18:51.710Z,56.60
2018-09-18T06:21:19.844Z,37.13
2018-09-18T06:23:47.938Z,20.17
2018-09-18T06:26:16.091Z,29.87
2018-09-18T06:28:44.267Z,24.53
2018-09-18T06:31:12.281Z,31.33
2018-09-18T06:33:40.355Z,30.60
2018-09-18T06:36:08.556Z,21.20
2018-09-18T06:38:36.910Z,21.00
2018-09-18T06:41:05.056Z,25.37
2018-09-18T06:43:33.165Z,33.03
2018-09-18T06:46:01.510Z,16.97
2018-09-18T06:48:29.734Z,22.23
2018-09-18T06:50:57.833Z,19.80
2018-09-18T06:53:26.072Z,18.07
2018-09-18T06:55:54.225Z,14.57
2018-09-18T06:58:22.857Z,17.07
2018-09-18T07:00:50.898Z,14.50
2018-09-18T07:03:19.027Z,14.97
2018-09-18T07:05:47.154Z,15.97
2018-09-18T07:08:15.341Z,15.80
2018-09-18T07:10:43.431Z,19.23
2018-09-18T07:13:11.608Z,17.30
2018-09-18T07:15:39.965Z,13.87
2018-09-18T07:18:08.188Z,14.47
2018-09-18T07:20:37.016Z,17.13
2018-09-18T07:23:05.206Z,19.90
2018-09-18T07:25:33.447Z,18.07
2018-09-18T07:28:01.748Z,16.17
2018-09-18T07:30:29.913Z,18.80
2018-09-18T07:32:58.077Z,21.07
2018-09-18T07:35:26.385Z,13.50
2018-09-18T07:37:54.495Z,16.27
2018-09-18T07:40:22.605Z,15.20
2018-09-18T07:42:51.265Z,15.60
2018-09-18T07:45:19.406Z,19.83
2018-09-18T07:47:54.101Z,21.37
2018-09-18T07:50:22.171Z,19.73
2018-09-18T07:52:50.346Z,25.20
2018-09-18T07:55:18.466Z,32.10
2018-09-18T07:57:46.729Z,25.67
2018-09-18T08:00:14.936Z,26.40
2018-09-18T08:02:43.146Z,20.80
2018-09-18T08:05:11.313Z,19.43
2018-09-18T08:07:39.489Z,18.10
2018-09-18T08:10:07.609Z,24.23
2018-09-18T08:12:36.785Z,16.93
2018-09-18T08:15:06.004Z,16.97
2018-09-18T08:17:34.151Z,22.83
2018-09-18T08:20:02.346Z,22.23
2018-09-18T08:22:30.519Z,13.10
2018-09-18T08:24:58.762Z,11.90
2018-09-18T08:27:27.193Z,10.13
2018-09-18T08:29:55.331Z,11.67
2018-09-18T08:32:23.665Z,9.70
2018-09-18T08:34:51.816Z,10.10
2018-09-18T08:37:20.038Z,10.60
2018-09-18T08:39:48.356Z,13.50
2018-09-18T08:42:16.417Z,11.40
2018-09-18T08:44:44.588Z,11.13
2018-09-18T08:47:13.199Z,12.60
2018-09-18T08:49:41.382Z,9.33
2018-09-18T08:52:09.607Z,10.00
2018-09-18T08:54:38.260Z,14.90
2018-09-18T08:57:07.321Z,11.80
2018-09-18T08:59:35.359Z,11.30
2018-09-18T09:02:03.538Z,8.30
2018-09-18T09:04:31.707Z,7.13
2018-09-18T09:06:59.785Z,7.90
2018-09-18T09:09:28.063Z,6.60
2018-09-18T09:11:56.042Z,10.27
2018-09-18T09:14:24.839Z,8.47
2018-09-18T09:16:52.966Z,8.43
2018-09-18T09:19:21.076Z,7.73
2018-09-18T09:21:49.293Z,10.90
2018-09-18T09:24:17.359Z,9.80
2018-09-18T09:26:45.738Z,13.90
2018-09-18T09:29:13.824Z,7.97
2018-09-18T09:31:41.844Z,7.10
2018-09-18T09:34:09.898Z,6.90
2018-09-18T09:36:38.298Z,8.13
2018-09-18T09:39:09.355Z,9.30
2018-09-18T09:41:37.466Z,7.83
2018-09-18T09:44:05.711Z,6.97
2018-09-18T09:46:33.875Z,6.63
2018-09-18T09:49:02.339Z,13.83
2018-09-18T09:51:30.447Z,8.03
2018-09-18T09:53:58.696Z,9.07
2018-09-18T09:56:27.071Z,6.87
2018-09-18T09:58:55.170Z,8.23
2018-09-18T10:01:28.950Z,5.83
2018-09-18T10:03:57.033Z,7.07
2018-09-18T10:06:25.571Z,8.93
2018-09-18T10:08:53.654Z,10.43
2018-09-18T10:11:21.910Z,7.00
2018-09-18T10:13:50.022Z,7.70
2018-09-18T10:16:18.013Z,6.03
2018-09-18T10:18:46.178Z,7.10
2018-09-18T10:21:14.247Z,10.30
2018-09-18T10:23:42.429Z,7.10
2018-09-18T10:26:10.567Z,8.47
2018-09-18T10:28:38.657Z,6.90
2018-09-18T10:31:06.838Z,6.43
2018-09-18T10:33:34.934Z,6.00
2018-09-18T10:36:03.745Z,7.33
2018-09-18T10:38:31.873Z,15.33
2018-09-18T10:40:59.981Z,8.73
2018-09-18T10:43:28.137Z,8.87
2018-09-18T10:45:56.201Z,8.70
2018-09-18T10:48:24.267Z,6.20
2018-09-18T10:50:52.392Z,5.87
2018-09-18T10:53:20.593Z,6.70
2018-09-18T10:55:48.729Z,7.37
2018-09-18T10:58:16.775Z,10.37
2018-09-18T11:00:44.845Z,6.37
2018-09-18T11:03:12.997Z,9.73
2018-09-18T11:05:41.071Z,5.90
2018-09-18T11:08:09.400Z,6.20
2018-09-18T11:10:37.586Z,6.37
2018-09-18T11:13:05.727Z,6.70
2018-09-18T11:15:33.928Z,6.87
2018-09-18T11:18:02.063Z,8.27
2018-09-18T11:20:30.211Z,6.47
2018-09-18T11:22:58.281Z,6.47
2018-09-18T11:25:26.514Z,5.63
2018-09-18T11:27:54.617Z,7.17
2018-09-18T11:30:22.765Z,8.67
2018-09-18T11:32:51.088Z,6.13
2018-09-18T11:35:19.253Z,6.40
2018-09-18T11:37:47.412Z,6.20
2018-09-18T11:40:15.618Z,6.80
2018-09-18T11:42:43.797Z,6.53
2018-09-18T11:45:12.173Z,5.90
2018-09-18T11:47:40.416Z,7.00
2018-09-18T11:50:09.022Z,8.27
2018-09-18T11:52:37.162Z,8.67
2018-09-18T11:55:05.421Z,7.47
2018-09-18T11:57:33.998Z,9.13
2018-09-18T12:00:02.208Z,6.30
2018-09-18T12:02:30.362Z,9.30
2018-09-18T12:04:58.478Z,7.87
2018-09-18T12:07:26.594Z,7.63
2018-09-18T12:09:54.746Z,6.70
2018-09-18T12:12:23.041Z,10.53
2018-09-18T12:14:51.226Z,9.70
2018-09-18T12:17:19.404Z,6.23
2018-09-18T12:19:47.623Z,9.60
2018-09-18T12:22:15.869Z,5.50
2018-09-18T12:24:44.063Z,6.60
2018-09-18T12:27:12.295Z,6.73
2018-09-18T12:29:40.642Z,8.43
2018-09-18T12:32:09.133Z,7.40
2018-09-18T12:34:37.610Z,6.90
2018-09-18T12:37:05.815Z,6.53
2018-09-18T12:39:33.950Z,6.60
2018-09-18T12:42:02.340Z,6.60
2018-09-18T12:44:30.166Z,7.83
2018-09-18T12:46:58.298Z,6.00
2018-09-18T12:49:26.593Z,6.03
2018-09-18T12:51:54.640Z,8.40
2018-09-18T12:54:22.741Z,8.43
2018-09-18T12:56:50.850Z,6.90
2018-09-18T12:59:19.288Z,7.73
2018-09-18T13:01:47.394Z,7.80
2018-09-18T13:04:15.643Z,6.83
2018-09-18T13:06:43.845Z,7.03
2018-09-18T13:09:12.823Z,10.07
2018-09-18T13:11:41.077Z,8.30
2018-09-18T13:14:09.428Z,8.10
2018-09-18T13:16:37.501Z,6.00
2018-09-18T13:19:06.155Z,6.17
2018-09-18T13:21:34.274Z,6.60
2018-09-18T13:24:02.324Z,10.83
2018-09-18T13:26:30.566Z,6.23
2018-09-18T13:28:58.806Z,7.10
2018-09-18T13:31:27.050Z,5.77
2018-09-18T13:33:55.421Z,5.83
2018-09-18T13:36:23.630Z,5.70
2018-09-18T13:38:51.887Z,6.90
2018-09-18T13:41:20.107Z,6.10
2018-09-18T13:43:48.156Z,5.80
2018-09-18T13:46:16.483Z,7.03
2018-09-18T13:48:44.705Z,10.03
2018-09-18T13:51:13.020Z,8.30
2018-09-18T13:53:41.160Z,7.10
2018-09-18T13:56:09.341Z,5.90
2018-09-18T13:58:37.446Z,8.83
2018-09-18T14:01:05.656Z,8.53
2018-09-18T14:03:33.768Z,8.53
2018-09-18T14:06:01.951Z,5.60
2018-09-18T14:08:30.017Z,6.30
2018-09-18T14:10:58.123Z,6.70
2018-09-18T14:13:26.926Z,8.13
2018-09-18T14:15:55.059Z,6.23
2018-09-18T14:18:23.205Z,7.50
2018-09-18T14:20:51.448Z,5.90
2018-09-18T14:23:19.617Z,5.40
2018-09-18T14:25:47.815Z,7.17
2018-09-18T14:28:16.155Z,7.83
2018-09-18T14:30:44.236Z,6.80
2018-09-18T14:33:12.820Z,7.30
2018-09-18T14:35:42.376Z,6.23
2018-09-18T14:38:10.543Z,7.53
2018-09-18T14:40:38.832Z,6.80
2018-09-18T14:43:06.904Z,8.57
2018-09-18T14:45:35.000Z,5.53
2018-09-18T14:48:03.170Z,6.40
2018-09-18T14:50:31.281Z,6.13
2018-09-18T14:52:59.436Z,6.40
2018-09-18T14:55:27.621Z,6.80
2018-09-18T14:57:56.083Z,6.07
2018-09-18T15:00:24.423Z,7.93
2018-09-18T15:02:52.671Z,5.97
2018-09-18T15:05:20.738Z,5.40
2018-09-18T15:07:48.860Z,5.23
2018-09-18T15:10:17.205Z,6.53
2018-09-18T15:12:45.324Z,6.20
2018-09-18T15:15:13.945Z,6.20
2018-09-18T15:17:41.967Z,6.63
2018-09-18T15:20:10.164Z,6.70
2018-09-18T15:22:38.305Z,6.50
2018-09-18T15:25:06.620Z,7.90
2018-09-18T15:27:34.822Z,8.50
2018-09-18T15:30:02.933Z,6.70
2018-09-18T15:32:31.870Z,6.20
2018-09-18T15:35:00.013Z,5.53
2018-09-18T15:37:28.487Z,6.17
2018-09-18T15:39:57.945Z,6.87
2018-09-18T15:42:26.858Z,5.33
2018-09-18T15:44:55.122Z,6.17
2018-09-18T15:47:23.391Z,6.60
2018-09-18T15:49:51.864Z,9.37
2018-09-18T15:52:20.034Z,10.17
2018-09-18T15:54:48.095Z,7.47
2018-09-18T15:57:16.406Z,6.23
2018-09-18T15:59:44.525Z,5.90
2018-09-18T16:02:12.799Z,11.13
2018-09-18T16:04:41.043Z,7.90
2018-09-18T16:07:09.213Z,9.87
2018-09-18T16:09:37.442Z,5.97
2018-09-18T16:12:06.220Z,5.80
2018-09-18T16:14:34.636Z,5.87
2018-09-18T16:17:02.934Z,5.87
2018-09-18T16:19:31.203Z,4.90
2018-09-18T16:21:59.399Z,5.27
2018-09-18T16:24:27.582Z,5.47
2018-09-18T16:26:55.736Z,10.40
2018-09-18T16:29:24.351Z,7.00
2018-09-18T16:31:52.578Z,8.70
2018-09-18T16:34:20.789Z,5.57
2018-09-18T16:36:48.981Z,6.10
2018-09-18T16:39:17.234Z,5.43
2018-09-18T16:41:52.071Z,7.53
2018-09-18T16:44:20.162Z,7.90
2018-09-18T16:46:48.383Z,6.63
2018-09-18T16:49:16.687Z,5.63
2018-09-18T16:51:44.832Z,7.03
2018-09-18T16:54:13.038Z,6.80
2018-09-18T16:56:41.252Z,9.17
2018-09-18T16:59:09.471Z,5.43
2018-09-18T17:01:37.617Z,6.77
2018-09-18T17:04:06.049Z,6.47
2018-09-18T17:06:34.297Z,7.80
2018-09-18T17:09:02.583Z,5.83
2018-09-18T17:11:30.896Z,6.70
2018-09-18T17:13:59.026Z,5.23
2018-09-18T17:16:27.250Z,5.87
2018-09-18T17:18:55.392Z,5.93
2018-09-18T17:21:23.561Z,6.27
2018-09-18T17:23:51.754Z,7.77
2018-09-18T17:26:19.914Z,7.53
2018-09-18T17:28:48.316Z,8.00
2018-09-18T17:31:16.321Z,5.83
2018-09-18T17:33:44.860Z,7.77
2018-09-18T17:36:13.138Z,6.30
2018-09-18T17:38:41.414Z,8.73
2018-09-18T17:41:09.649Z,7.53
2018-09-18T17:43:37.967Z,6.90
2018-09-18T17:46:06.363Z,6.87
2018-09-18T17:48:34.540Z,7.00
2018-09-18T17:51:02.816Z,7.20
2018-09-18T17:53:31.044Z,8.00
2018-09-18T17:56:00.099Z,10.03
2018-09-18T17:58:28.353Z,6.07
2018-09-18T18:00:59.513Z,7.03
2018-09-18T18:03:28.715Z,7.53
2018-09-18T18:05:56.926Z,11.50
2018-09-18T18:08:25.171Z,8.43
2018-09-18T18:10:53.726Z,10.63
2018-09-18T18:13:21.970Z,8.93
2018-09-18T18:15:50.449Z,9.27
2018-09-18T18:18:18.713Z,10.00
2018-09-18T18:20:47.269Z,14.67
2018-09-18T18:23:22.184Z,7.10
2018-09-18T18:25:50.451Z,8.90
2018-09-18T18:28:19.535Z,10.83
2018-09-18T18:30:47.874Z,8.60
2018-09-18T18:33:16.030Z,8.47
2018-09-18T18:35:44.278Z,7.67
2018-09-18T18:38:12.465Z,11.53
2018-09-18T18:40:42.180Z,9.77
2018-09-18T18:43:10.403Z,7.17
2018-09-18T18:45:38.777Z,8.53
2018-09-18T18:48:07.820Z,7.83
2018-09-18T18:50:35.899Z,8.57
2018-09-18T18:53:04.214Z,9.53
2018-09-18T18:55:32.453Z,8.93
2018-09-18T18:58:00.885Z,8.27
2018-09-18T19:00:29.281Z,7.40
2018-09-18T19:02:57.532Z,10.20
2018-09-18T19:05:26.091Z,9.23
2018-09-18T19:07:54.773Z,6.50
2018-09-18T19:10:23.011Z,10.30
2018-09-18T19:12:51.365Z,7.10
2018-09-18T19:15:19.872Z,10.10
2018-09-18T19:17:48.293Z,7.57
2018-09-18T19:20:16.774Z,8.60
2018-09-18T19:22:45.109Z,8.43
2018-09-18T19:25:13.466Z,7.93
2018-09-18T19:27:41.760Z,9.73
2018-09-18T19:30:10.040Z,9.13
2018-09-18T19:32:38.591Z,9.30
2018-09-18T19:35:07.443Z,7.57
2018-09-18T19:37:37.355Z,7.80
2018-09-18T19:40:07.042Z,12.30
2018-09-18T19:42:35.895Z,11.30
2018-09-18T19:45:04.970Z,11.20
2018-09-18T19:47:34.457Z,10.40
2018-09-18T19:50:03.114Z,9.77
2018-09-18T19:52:32.026Z,9.40
2018-09-18T19:55:01.986Z,8.43
2018-09-18T19:57:30.779Z,16.60
2018-09-18T20:00:00.022Z,14.33
2018-09-18T20:02:29.401Z,11.27
2018-09-18T20:04:57.807Z,11.53
2018-09-18T20:07:26.095Z,7.57
2018-09-18T20:09:54.347Z,11.83
2018-09-18T20:12:23.435Z,8.90
2018-09-18T20:14:51.721Z,9.70
2018-09-18T20:17:19.931Z,9.07
2018-09-18T20:19:48.232Z,9.30
2018-09-18T20:22:17.097Z,10.93
2018-09-18T20:24:45.418Z,15.40
2018-09-18T20:27:14.213Z,10.40
2018-09-18T20:29:42.548Z,9.53
2018-09-18T20:32:10.687Z,15.40
2018-09-18T20:34:39.016Z,9.80
2018-09-18T20:37:07.279Z,13.17
2018-09-18T20:39:35.660Z,13.83
2018-09-18T20:42:03.870Z,17.80
2018-09-18T20:44:32.120Z,13.43
2018-09-18T20:47:00.385Z,9.60
2018-09-18T20:49:28.976Z,18.10
2018-09-18T20:51:57.166Z,9.43
2018-09-18T20:54:25.645Z,11.17
2018-09-18T20:56:53.864Z,13.53
2018-09-18T20:59:22.119Z,12.10
2018-09-18T21:01:50.324Z,13.47
2018-09-18T21:04:18.523Z,12.00
2018-09-18T21:06:46.766Z,12.37
2018-09-18T21:09:14.976Z,12.07
2018-09-18T21:11:43.166Z,11.90
2018-09-18T21:14:11.337Z,10.80
2018-09-18T21:16:39.491Z,9.37
2018-09-18T21:19:07.750Z,11.40
2018-09-18T21:21:35.919Z,10.73
2018-09-18T21:24:03.987Z,12.47
2018-09-18T21:26:32.115Z,12.03
2018-09-18T21:29:00.237Z,9.63
2018-09-18T21:31:28.387Z,22.63
2018-09-18T21:33:56.563Z,10.03
2018-09-18T21:36:24.706Z,12.63
2018-09-18T21:38:52.810Z,10.90
2018-09-18T21:41:21.089Z,13.23
2018-09-18T21:43:49.314Z,15.33
2018-09-18T21:46:17.526Z,10.93
2018-09-18T21:48:45.758Z,9.93
2018-09-18T21:51:13.913Z,9.70
2018-09-18T21:53:42.031Z,10.20
2018-09-18T21:56:10.340Z,10.87
2018-09-18T21:58:38.489Z,11.17
2018-09-18T22:01:06.978Z,11.07
2018-09-18T22:03:35.434Z,10.53
2018-09-18T22:06:04.824Z,9.83
2018-09-18T22:08:33.002Z,9.67
2018-09-18T22:11:01.255Z,9.40
2018-09-18T22:13:29.963Z,9.00
2018-09-18T22:15:58.111Z,8.93
2018-09-18T22:18:26.248Z,12.30
2018-09-18T22:20:55.166Z,9.10
2018-09-18T22:23:25.387Z,8.17
2018-09-18T22:25:54.499Z,7.50
2018-09-18T22:28:22.611Z,7.97
2018-09-18T22:30:50.723Z,10.83
2018-09-18T22:33:19.245Z,8.63
2018-09-18T22:35:48.442Z,7.73
2018-09-18T22:38:16.550Z,7.27
2018-09-18T22:40:44.847Z,7.80
2018-09-18T22:43:12.957Z,7.30
2018-09-18T22:45:42.308Z,8.30
2018-09-18T22:48:10.413Z,8.30
2018-09-18T22:50:38.479Z,8.93
2018-09-18T22:53:06.566Z,10.30
2018-09-18T22:55:34.629Z,7.63
2018-09-18T22:58:02.939Z,9.87
2018-09-18T23:00:31.048Z,10.60
2018-09-18T23:02:59.940Z,8.40
2018-09-18T23:05:28.083Z,7.80
2018-09-18T23:07:56.214Z,10.83
2018-09-18T23:10:24.263Z,8.37
2018-09-18T23:12:53.019Z,9.40
2018-09-18T23:15:21.447Z,9.60
2018-09-18T23:17:49.783Z,10.23
2018-09-18T23:20:18.627Z,9.93
2018-09-18T23:22:46.696Z,8.90
2018-09-18T23:25:14.861Z,12.83
2018-09-18T23:27:43.099Z,10.07
2018-09-18T23:30:11.234Z,10.43
2018-09-18T23:32:39.303Z,10.43
2018-09-18T23:35:07.423Z,11.40
2018-09-18T23:37:35.707Z,11.40
2018-09-18T23:40:03.916Z,11.77
2018-09-18T23:42:33.573Z,10.20
2018-09-18T23:45:01.957Z,12.70
2018-09-18T23:47:30.187Z,15.37
2018-09-18T23:49:58.588Z,13.83
2018-09-18T23:52:26.886Z,11.63
2018-09-18T23:54:55.129Z,11.23
2018-09-18T23:57:23.189Z,11.97
2018-09-18T23:59:51.368Z,11.27
